sensor_id;sensor_type;location;lat;lon;timestamp;temperature;humidity
6662;DHT22;3367;48.714;8.994;2023-09-19T00:00:47;16.10;27.70
6662;DHT22;3367;48.714;8.994;2023-09-19T00:03:17;16.00;1.00
6662;DHT22;3367;48.714;8.994;2023-09-19T00:05:44;16.00;15.60
6662;DHT22;3367;48.714;8.994;2023-09-19T00:08:16;16.00;20.90
6662;DHT22;3367;48.714;8.994;2023-09-19T00:10:55;16.00;50.50
6662;DHT22;3367;48.714;8.994;2023-09-19T00:13:25;16.00;5.20
6662;DHT22;3367;48.714;8.994;2023-09-19T00:15:52;16.00;63.00
6662;DHT22;3367;48.714;8.994;2023-09-19T00:18:21;15.90;96.40
6662;DHT22;3367;48.714;8.994;2023-09-19T00:20:49;15.90;92.90
6662;DHT22;3367;48.714;8.994;2023-09-19T00:23:24;15.90;99.90
6662;DHT22;3367;48.714;8.994;2023-09-19T00:25:51;15.90;99.90
6662;DHT22;3367;48.714;8.994;2023-09-19T00:28:30;15.90;99.90
6662;DHT22;3367;48.714;8.994;2023-09-19T00:30:59;15.80;99.90
6662;DHT22;3367;48.714;8.994;2023-09-19T00:33:27;15.90;99.90
6662;DHT22;3367;48.714;8.994;2023-09-19T00:36:00;15.80;99.90
6662;DHT22;3367;48.714;8.994;2023-09-19T00:38:36;15.80;99.90
6662;DHT22;3367;48.714;8.994;2023-09-19T00:41:06;15.80;99.90
6662;DHT22;3367;48.714;8.994;2023-09-19T00:43:34;15.80;99.90
6662;DHT22;3367;48.714;8.994;2023-09-19T00:46:04;15.80;99.90
6662;DHT22;3367;48.714;8.994;2023-09-19T00:48:40;15.80;99.90
6662;DHT22;3367;48.714;8.994;2023-09-19T00:51:09;15.80;99.90
6662;DHT22;3367;48.714;8.994;2023-09-19T00:53:39;15.80;99.90
6662;DHT22;3367;48.714;8.994;2023-09-19T00:56:15;15.80;99.90
6662;DHT22;3367;48.714;8.994;2023-09-19T00:58:45;15.70;99.90
6662;DHT22;3367;48.714;8.994;2023-09-19T01:01:25;15.70;99.90
6662;DHT22;3367;48.714;8.994;2023-09-19T01:03:52;15.70;99.90
6662;DHT22;3367;48.714;8.994;2023-09-19T01:06:22;15.70;99.90
6662;DHT22;3367;48.714;8.994;2023-09-19T01:08:48;15.70;99.90
6662;DHT22;3367;48.714;8.994;2023-09-19T01:11:25;15.70;99.90
6662;DHT22;3367;48.714;8.994;2023-09-19T01:13:59;15.70;65.40
6662;DHT22;3367;48.714;8.994;2023-09-19T01:16:35;15.70;1.00
6662;DHT22;3367;48.714;8.994;2023-09-19T01:22:11;15.70;1.00
6662;DHT22;3367;48.714;8.994;2023-09-19T01:25:07;15.60;1.00
6662;DHT22;3367;48.714;8.994;2023-09-19T01:28:02;15.70;1.00
6662;DHT22;3367;48.714;8.994;2023-09-19T01:30:39;15.60;1.00
6662;DHT22;3367;48.714;8.994;2023-09-19T01:33:06;15.60;1.00
6662;DHT22;3367;48.714;8.994;2023-09-19T01:35:33;15.70;1.00
6662;DHT22;3367;48.714;8.994;2023-09-19T01:38:04;15.70;1.00
6662;DHT22;3367;48.714;8.994;2023-09-19T01:40:34;15.60;1.00
6662;DHT22;3367;48.714;8.994;2023-09-19T01:43:08;15.60;1.00
6662;DHT22;3367;48.714;8.994;2023-09-19T01:45:43;15.60;1.00
6662;DHT22;3367;48.714;8.994;2023-09-19T01:48:19;15.60;1.00
6662;DHT22;3367;48.714;8.994;2023-09-19T01:50:56;15.60;1.00
6662;DHT22;3367;48.714;8.994;2023-09-19T01:53:27;15.60;1.00
6662;DHT22;3367;48.714;8.994;2023-09-19T01:55:57;15.60;1.00
6662;DHT22;3367;48.714;8.994;2023-09-19T01:58:32;15.50;1.00
6662;DHT22;3367;48.714;8.994;2023-09-19T02:01:01;15.60;1.00
6662;DHT22;3367;48.714;8.994;2023-09-19T02:03:37;15.50;1.00
6662;DHT22;3367;48.714;8.994;2023-09-19T02:06:07;15.50;1.00
6662;DHT22;3367;48.714;8.994;2023-09-19T02:08:42;15.40;1.00
6662;DHT22;3367;48.714;8.994;2023-09-19T02:11:10;15.40;1.00
6662;DHT22;3367;48.714;8.994;2023-09-19T02:13:37;15.40;1.00
6662;DHT22;3367;48.714;8.994;2023-09-19T02:16:05;15.40;1.00
6662;DHT22;3367;48.714;8.994;2023-09-19T02:18:32;15.40;1.00
6662;DHT22;3367;48.714;8.994;2023-09-19T02:21:00;15.30;1.00
6662;DHT22;3367;48.714;8.994;2023-09-19T02:23:30;15.30;1.00
6662;DHT22;3367;48.714;8.994;2023-09-19T02:25:59;15.30;1.00
6662;DHT22;3367;48.714;8.994;2023-09-19T02:28:33;15.20;1.00
6662;DHT22;3367;48.714;8.994;2023-09-19T02:31:01;15.20;1.00
6662;DHT22;3367;48.714;8.994;2023-09-19T02:33:32;15.10;1.00
6662;DHT22;3367;48.714;8.994;2023-09-19T02:35:59;15.10;1.00
6662;DHT22;3367;48.714;8.994;2023-09-19T02:38:26;15.00;1.00
6662;DHT22;3367;48.714;8.994;2023-09-19T02:40:53;15.00;58.00
6662;DHT22;3367;48.714;8.994;2023-09-19T02:43:20;14.90;92.00
6662;DHT22;3367;48.714;8.994;2023-09-19T02:45:50;15.00;99.90
6662;DHT22;3367;48.714;8.994;2023-09-19T02:48:18;15.00;99.90
6662;DHT22;3367;48.714;8.994;2023-09-19T02:50:53;14.90;99.90
6662;DHT22;3367;48.714;8.994;2023-09-19T02:53:20;15.00;99.90
6662;DHT22;3367;48.714;8.994;2023-09-19T02:55:47;15.00;99.90
6662;DHT22;3367;48.714;8.994;2023-09-19T02:58:14;15.10;99.90
6662;DHT22;3367;48.714;8.994;2023-09-19T03:00:44;15.10;99.90
6662;DHT22;3367;48.714;8.994;2023-09-19T03:03:13;15.20;99.90
6662;DHT22;3367;48.714;8.994;2023-09-19T03:05:41;15.20;99.90
6662;DHT22;3367;48.714;8.994;2023-09-19T03:08:20;15.20;99.90
6662;DHT22;3367;48.714;8.994;2023-09-19T03:10:47;15.20;99.90
6662;DHT22;3367;48.714;8.994;2023-09-19T03:13:14;15.30;99.90
6662;DHT22;3367;48.714;8.994;2023-09-19T03:15:41;15.30;99.90
6662;DHT22;3367;48.714;8.994;2023-09-19T03:18:09;15.30;99.90
6662;DHT22;3367;48.714;8.994;2023-09-19T03:20:36;15.30;99.90
6662;DHT22;3367;48.714;8.994;2023-09-19T03:23:04;15.20;99.90
6662;DHT22;3367;48.714;8.994;2023-09-19T03:25:38;15.30;99.90
6662;DHT22;3367;48.714;8.994;2023-09-19T03:28:06;15.30;99.90
6662;DHT22;3367;48.714;8.994;2023-09-19T03:30:33;15.40;99.90
6662;DHT22;3367;48.714;8.994;2023-09-19T03:33:00;15.40;99.90
6662;DHT22;3367;48.714;8.994;2023-09-19T03:35:29;15.40;99.90
6662;DHT22;3367;48.714;8.994;2023-09-19T03:37:59;15.40;99.90
6662;DHT22;3367;48.714;8.994;2023-09-19T03:40:28;15.40;99.90
6662;DHT22;3367;48.714;8.994;2023-09-19T03:42:56;15.50;99.90
6662;DHT22;3367;48.714;8.994;2023-09-19T03:45:29;15.40;99.90
6662;DHT22;3367;48.714;8.994;2023-09-19T03:48:06;15.40;99.90
6662;DHT22;3367;48.714;8.994;2023-09-19T03:50:37;15.50;99.90
6662;DHT22;3367;48.714;8.994;2023-09-19T03:53:04;15.50;99.90
6662;DHT22;3367;48.714;8.994;2023-09-19T03:55:32;15.40;99.90
6662;DHT22;3367;48.714;8.994;2023-09-19T03:58:02;15.50;99.90
6662;DHT22;3367;48.714;8.994;2023-09-19T04:00:34;15.50;99.90
6662;DHT22;3367;48.714;8.994;2023-09-19T04:03:01;15.50;99.90
6662;DHT22;3367;48.714;8.994;2023-09-19T04:05:31;15.50;99.90
6662;DHT22;3367;48.714;8.994;2023-09-19T04:08:05;15.50;99.90
6662;DHT22;3367;48.714;8.994;2023-09-19T04:10:31;15.50;99.90
6662;DHT22;3367;48.714;8.994;2023-09-19T04:13:05;15.60;99.90
6662;DHT22;3367;48.714;8.994;2023-09-19T04:15:33;15.60;99.90
6662;DHT22;3367;48.714;8.994;2023-09-19T04:18:00;15.60;99.90
6662;DHT22;3367;48.714;8.994;2023-09-19T04:20:34;15.60;99.90
6662;DHT22;3367;48.714;8.994;2023-09-19T04:23:07;15.70;99.90
6662;DHT22;3367;48.714;8.994;2023-09-19T04:25:36;15.70;40.00
6662;DHT22;3367;48.714;8.994;2023-09-19T04:28:05;15.80;1.00
6662;DHT22;3367;48.714;8.994;2023-09-19T04:30:35;15.80;1.00
6662;DHT22;3367;48.714;8.994;2023-09-19T04:33:02;15.80;1.00
6662;DHT22;3367;48.714;8.994;2023-09-19T04:35:36;15.80;1.00
6662;DHT22;3367;48.714;8.994;2023-09-19T04:38:07;15.90;1.00
6662;DHT22;3367;48.714;8.994;2023-09-19T04:40:43;15.90;1.00
6662;DHT22;3367;48.714;8.994;2023-09-19T04:43:11;15.90;1.00
6662;DHT22;3367;48.714;8.994;2023-09-19T04:45:39;15.90;1.00
6662;DHT22;3367;48.714;8.994;2023-09-19T04:48:06;15.90;1.00
6662;DHT22;3367;48.714;8.994;2023-09-19T04:50:38;15.90;1.00
6662;DHT22;3367;48.714;8.994;2023-09-19T04:53:05;15.90;99.90
6662;DHT22;3367;48.714;8.994;2023-09-19T04:55:35;15.90;99.90
6662;DHT22;3367;48.714;8.994;2023-09-19T04:58:02;15.80;99.90
6662;DHT22;3367;48.714;8.994;2023-09-19T05:00:36;15.70;1.00
6662;DHT22;3367;48.714;8.994;2023-09-19T05:03:11;15.70;1.00
6662;DHT22;3367;48.714;8.994;2023-09-19T05:05:44;15.70;1.00
6662;DHT22;3367;48.714;8.994;2023-09-19T05:08:15;15.60;1.00
6662;DHT22;3367;48.714;8.994;2023-09-19T05:10:42;15.50;25.00
6662;DHT22;3367;48.714;8.994;2023-09-19T05:13:09;15.50;99.90
6662;DHT22;3367;48.714;8.994;2023-09-19T05:15:38;15.60;99.90
6662;DHT22;3367;48.714;8.994;2023-09-19T05:18:05;15.50;99.90
6662;DHT22;3367;48.714;8.994;2023-09-19T05:20:35;15.40;99.90
6662;DHT22;3367;48.714;8.994;2023-09-19T05:23:13;15.50;99.90
6662;DHT22;3367;48.714;8.994;2023-09-19T05:25:46;15.50;99.90
6662;DHT22;3367;48.714;8.994;2023-09-19T05:28:23;15.40;99.90
6662;DHT22;3367;48.714;8.994;2023-09-19T05:30:57;15.50;1.00
6662;DHT22;3367;48.714;8.994;2023-09-19T05:33:24;15.50;1.00
6662;DHT22;3367;48.714;8.994;2023-09-19T05:35:52;15.50;1.00
6662;DHT22;3367;48.714;8.994;2023-09-19T05:38:22;15.60;99.90
6662;DHT22;3367;48.714;8.994;2023-09-19T05:40:52;15.60;1.00
6662;DHT22;3367;48.714;8.994;2023-09-19T05:43:21;15.70;99.90
6662;DHT22;3367;48.714;8.994;2023-09-19T05:45:48;15.70;99.90
6662;DHT22;3367;48.714;8.994;2023-09-19T05:48:19;15.70;99.90
6662;DHT22;3367;48.714;8.994;2023-09-19T05:50:46;15.70;99.90
6662;DHT22;3367;48.714;8.994;2023-09-19T05:53:18;15.60;99.90
6662;DHT22;3367;48.714;8.994;2023-09-19T05:55:48;15.50;92.40
6662;DHT22;3367;48.714;8.994;2023-09-19T05:58:21;15.40;99.90
6662;DHT22;3367;48.714;8.994;2023-09-19T06:00:48;15.30;1.00
6662;DHT22;3367;48.714;8.994;2023-09-19T06:03:19;15.20;1.00
6662;DHT22;3367;48.714;8.994;2023-09-19T06:05:46;15.10;1.00
6662;DHT22;3367;48.714;8.994;2023-09-19T06:08:18;15.10;1.00
6662;DHT22;3367;48.714;8.994;2023-09-19T06:10:51;15.00;1.00
6662;DHT22;3367;48.714;8.994;2023-09-19T06:13:17;15.00;1.00
6662;DHT22;3367;48.714;8.994;2023-09-19T06:15:45;15.00;50.50
6662;DHT22;3367;48.714;8.994;2023-09-19T06:18:12;15.00;97.90
6662;DHT22;3367;48.714;8.994;2023-09-19T06:20:52;14.90;55.00
6662;DHT22;3367;48.714;8.994;2023-09-19T06:23:20;15.00;99.90
6662;DHT22;3367;48.714;8.994;2023-09-19T06:25:48;15.10;99.90
6662;DHT22;3367;48.714;8.994;2023-09-19T06:28:15;15.20;99.90
6662;DHT22;3367;48.714;8.994;2023-09-19T06:30:52;15.30;99.90
6662;DHT22;3367;48.714;8.994;2023-09-19T06:33:19;15.40;99.90
6662;DHT22;3367;48.714;8.994;2023-09-19T06:35:47;15.50;72.20
6662;DHT22;3367;48.714;8.994;2023-09-19T06:38:15;15.70;1.00
6662;DHT22;3367;48.714;8.994;2023-09-19T06:40:43;15.60;1.00
6662;DHT22;3367;48.714;8.994;2023-09-19T06:43:12;15.70;1.00
6662;DHT22;3367;48.714;8.994;2023-09-19T06:45:39;16.00;1.00
6662;DHT22;3367;48.714;8.994;2023-09-19T06:48:12;16.30;1.00
6662;DHT22;3367;48.714;8.994;2023-09-19T06:50:41;16.60;29.20
6662;DHT22;3367;48.714;8.994;2023-09-19T06:53:12;16.90;1.00
6662;DHT22;3367;48.714;8.994;2023-09-19T06:55:40;17.20;1.00
6662;DHT22;3367;48.714;8.994;2023-09-19T06:58:09;17.60;1.00
6662;DHT22;3367;48.714;8.994;2023-09-19T07:00:36;17.50;98.90
6662;DHT22;3367;48.714;8.994;2023-09-19T07:03:07;17.70;1.00
6662;DHT22;3367;48.714;8.994;2023-09-19T07:05:37;17.70;1.00
6662;DHT22;3367;48.714;8.994;2023-09-19T07:08:05;17.70;1.00
6662;DHT22;3367;48.714;8.994;2023-09-19T07:10:32;17.60;1.00
6662;DHT22;3367;48.714;8.994;2023-09-19T07:13:02;17.70;1.00
6662;DHT22;3367;48.714;8.994;2023-09-19T07:15:32;17.60;1.00
6662;DHT22;3367;48.714;8.994;2023-09-19T07:18:02;17.70;99.90
6662;DHT22;3367;48.714;8.994;2023-09-19T07:20:29;17.50;1.00
6662;DHT22;3367;48.714;8.994;2023-09-19T07:22:57;17.60;1.00
6662;DHT22;3367;48.714;8.994;2023-09-19T07:25:26;17.70;1.00
6662;DHT22;3367;48.714;8.994;2023-09-19T07:27:55;17.80;1.00
6662;DHT22;3367;48.714;8.994;2023-09-19T07:30:23;17.90;1.00
6662;DHT22;3367;48.714;8.994;2023-09-19T07:32:51;18.10;1.00
6662;DHT22;3367;48.714;8.994;2023-09-19T07:35:19;17.90;1.00
6662;DHT22;3367;48.714;8.994;2023-09-19T07:37:46;17.80;1.00
6662;DHT22;3367;48.714;8.994;2023-09-19T07:40:14;17.60;1.00
6662;DHT22;3367;48.714;8.994;2023-09-19T07:42:41;17.70;1.00
6662;DHT22;3367;48.714;8.994;2023-09-19T07:45:10;17.70;1.00
6662;DHT22;3367;48.714;8.994;2023-09-19T07:47:44;17.60;1.00
6662;DHT22;3367;48.714;8.994;2023-09-19T07:50:12;17.60;1.00
6662;DHT22;3367;48.714;8.994;2023-09-19T07:52:39;17.70;1.00
6662;DHT22;3367;48.714;8.994;2023-09-19T07:55:06;17.60;1.00
6662;DHT22;3367;48.714;8.994;2023-09-19T07:57:34;17.80;99.90
6662;DHT22;3367;48.714;8.994;2023-09-19T08:00:01;17.90;1.00
6662;DHT22;3367;48.714;8.994;2023-09-19T08:02:30;18.00;1.00
6662;DHT22;3367;48.714;8.994;2023-09-19T08:05:07;17.90;1.00
6662;DHT22;3367;48.714;8.994;2023-09-19T08:07:35;17.90;99.90
6662;DHT22;3367;48.714;8.994;2023-09-19T08:10:04;18.00;1.00
6662;DHT22;3367;48.714;8.994;2023-09-19T08:12:33;18.00;99.90
6662;DHT22;3367;48.714;8.994;2023-09-19T08:15:01;18.00;52.10
6662;DHT22;3367;48.714;8.994;2023-09-19T08:17:28;18.00;99.90
6662;DHT22;3367;48.714;8.994;2023-09-19T08:19:54;18.10;99.90
6662;DHT22;3367;48.714;8.994;2023-09-19T08:22:23;18.20;56.50
6662;DHT22;3367;48.714;8.994;2023-09-19T08:24:50;18.20;1.00
6662;DHT22;3367;48.714;8.994;2023-09-19T08:27:17;18.20;1.00
6662;DHT22;3367;48.714;8.994;2023-09-19T08:29:45;18.10;1.00
6662;DHT22;3367;48.714;8.994;2023-09-19T08:32:12;18.10;1.00
6662;DHT22;3367;48.714;8.994;2023-09-19T08:34:39;18.10;1.00
6662;DHT22;3367;48.714;8.994;2023-09-19T08:37:07;18.20;1.00
6662;DHT22;3367;48.714;8.994;2023-09-19T08:39:35;18.20;1.00
6662;DHT22;3367;48.714;8.994;2023-09-19T08:42:03;18.00;1.00
6662;DHT22;3367;48.714;8.994;2023-09-19T08:44:30;18.00;1.00
6662;DHT22;3367;48.714;8.994;2023-09-19T08:47:09;17.90;1.00
6662;DHT22;3367;48.714;8.994;2023-09-19T08:49:41;17.90;1.00
6662;DHT22;3367;48.714;8.994;2023-09-19T08:52:19;18.00;1.00
6662;DHT22;3367;48.714;8.994;2023-09-19T08:54:52;18.00;99.90
6662;DHT22;3367;48.714;8.994;2023-09-19T08:57:22;18.00;1.00
6662;DHT22;3367;48.714;8.994;2023-09-19T08:59:50;18.10;1.00
6662;DHT22;3367;48.714;8.994;2023-09-19T09:02:18;18.10;99.90
6662;DHT22;3367;48.714;8.994;2023-09-19T09:04:46;18.30;1.00
6662;DHT22;3367;48.714;8.994;2023-09-19T09:07:14;18.30;99.90
6662;DHT22;3367;48.714;8.994;2023-09-19T09:09:42;18.40;99.90
6662;DHT22;3367;48.714;8.994;2023-09-19T09:12:12;18.40;99.90
6662;DHT22;3367;48.714;8.994;2023-09-19T09:14:39;18.40;99.90
6662;DHT22;3367;48.714;8.994;2023-09-19T09:17:06;18.30;99.90
6662;DHT22;3367;48.714;8.994;2023-09-19T09:19:33;18.30;99.90
6662;DHT22;3367;48.714;8.994;2023-09-19T09:22:07;18.20;99.90
6662;DHT22;3367;48.714;8.994;2023-09-19T09:24:34;18.30;40.60
6662;DHT22;3367;48.714;8.994;2023-09-19T09:27:04;18.20;1.00
6662;DHT22;3367;48.714;8.994;2023-09-19T09:29:42;18.00;16.10
6662;DHT22;3367;48.714;8.994;2023-09-19T09:32:17;17.90;99.90
6662;DHT22;3367;48.714;8.994;2023-09-19T09:34:45;18.00;1.00
6662;DHT22;3367;48.714;8.994;2023-09-19T09:37:14;18.10;1.00
6662;DHT22;3367;48.714;8.994;2023-09-19T09:39:49;18.30;1.00
6662;DHT22;3367;48.714;8.994;2023-09-19T09:42:29;18.50;1.00
6662;DHT22;3367;48.714;8.994;2023-09-19T09:45:16;18.50;1.00
6662;DHT22;3367;48.714;8.994;2023-09-19T09:47:46;18.60;1.00
6662;DHT22;3367;48.714;8.994;2023-09-19T09:50:27;18.80;1.00
6662;DHT22;3367;48.714;8.994;2023-09-19T09:53:22;18.80;1.00
6662;DHT22;3367;48.714;8.994;2023-09-19T09:55:59;19.00;1.00
6662;DHT22;3367;48.714;8.994;2023-09-19T09:58:26;19.10;1.00
6662;DHT22;3367;48.714;8.994;2023-09-19T10:00:57;19.40;1.00
6662;DHT22;3367;48.714;8.994;2023-09-19T10:03:34;19.60;1.00
6662;DHT22;3367;48.714;8.994;2023-09-19T10:06:05;19.80;1.00
6662;DHT22;3367;48.714;8.994;2023-09-19T10:08:58;19.90;1.00
6662;DHT22;3367;48.714;8.994;2023-09-19T10:11:30;20.10;1.00
6662;DHT22;3367;48.714;8.994;2023-09-19T10:13:57;20.20;1.00
6662;DHT22;3367;48.714;8.994;2023-09-19T10:16:34;20.50;1.00
6662;DHT22;3367;48.714;8.994;2023-09-19T10:19:07;20.60;1.00
6662;DHT22;3367;48.714;8.994;2023-09-19T10:21:36;21.00;1.00
6662;DHT22;3367;48.714;8.994;2023-09-19T10:24:04;21.30;1.00
6662;DHT22;3367;48.714;8.994;2023-09-19T10:26:34;21.40;1.00
6662;DHT22;3367;48.714;8.994;2023-09-19T10:29:03;21.20;1.00
6662;DHT22;3367;48.714;8.994;2023-09-19T10:31:36;21.20;1.00
6662;DHT22;3367;48.714;8.994;2023-09-19T10:34:07;21.10;1.00
6662;DHT22;3367;48.714;8.994;2023-09-19T10:36:36;21.10;1.00
6662;DHT22;3367;48.714;8.994;2023-09-19T10:39:05;21.10;1.00
6662;DHT22;3367;48.714;8.994;2023-09-19T10:41:35;21.50;1.00
6662;DHT22;3367;48.714;8.994;2023-09-19T10:44:03;21.20;1.00
6662;DHT22;3367;48.714;8.994;2023-09-19T10:46:31;21.20;1.00
6662;DHT22;3367;48.714;8.994;2023-09-19T10:49:00;21.10;1.00
6662;DHT22;3367;48.714;8.994;2023-09-19T10:51:30;20.90;1.00
6662;DHT22;3367;48.714;8.994;2023-09-19T10:54:01;20.90;1.00
6662;DHT22;3367;48.714;8.994;2023-09-19T10:56:33;21.00;1.00
6662;DHT22;3367;48.714;8.994;2023-09-19T10:59:06;21.00;1.00
6662;DHT22;3367;48.714;8.994;2023-09-19T11:01:42;21.00;1.00
6662;DHT22;3367;48.714;8.994;2023-09-19T11:04:24;20.90;1.00
6662;DHT22;3367;48.714;8.994;2023-09-19T11:07:03;21.00;1.00
6662;DHT22;3367;48.714;8.994;2023-09-19T11:09:47;21.00;1.00
6662;DHT22;3367;48.714;8.994;2023-09-19T11:12:49;21.30;1.00
6662;DHT22;3367;48.714;8.994;2023-09-19T11:18:51;21.10;1.00
6662;DHT22;3367;48.714;8.994;2023-09-19T11:21:42;20.90;1.00
6662;DHT22;3367;48.714;8.994;2023-09-19T11:24:30;20.80;1.00
6662;DHT22;3367;48.714;8.994;2023-09-19T11:27:12;20.60;1.00
6662;DHT22;3367;48.714;8.994;2023-09-19T11:29:40;20.50;1.00
6662;DHT22;3367;48.714;8.994;2023-09-19T11:32:07;20.40;1.00
6662;DHT22;3367;48.714;8.994;2023-09-19T11:34:43;20.20;1.00
6662;DHT22;3367;48.714;8.994;2023-09-19T11:40:33;20.00;1.00
6662;DHT22;3367;48.714;8.994;2023-09-19T11:43:30;19.90;1.00
6662;DHT22;3367;48.714;8.994;2023-09-19T11:46:09;19.80;1.00
6662;DHT22;3367;48.714;8.994;2023-09-19T11:48:38;19.80;1.00
6662;DHT22;3367;48.714;8.994;2023-09-19T11:51:15;19.70;1.00
6662;DHT22;3367;48.714;8.994;2023-09-19T11:53:46;19.70;1.00
6662;DHT22;3367;48.714;8.994;2023-09-19T11:56:17;19.60;1.00
6662;DHT22;3367;48.714;8.994;2023-09-19T11:58:46;19.70;1.00
6662;DHT22;3367;48.714;8.994;2023-09-19T12:01:15;19.90;1.00
6662;DHT22;3367;48.714;8.994;2023-09-19T12:03:52;20.00;1.00
6662;DHT22;3367;48.714;8.994;2023-09-19T12:06:20;20.20;1.00
6662;DHT22;3367;48.714;8.994;2023-09-19T12:08:48;20.30;1.00
6662;DHT22;3367;48.714;8.994;2023-09-19T12:11:17;20.40;1.00
6662;DHT22;3367;48.714;8.994;2023-09-19T12:13:47;20.60;1.00
6662;DHT22;3367;48.714;8.994;2023-09-19T12:16:15;20.70;1.00
6662;DHT22;3367;48.714;8.994;2023-09-19T12:18:43;20.80;1.00
6662;DHT22;3367;48.714;8.994;2023-09-19T12:21:22;20.70;1.00
6662;DHT22;3367;48.714;8.994;2023-09-19T12:26:46;21.00;1.00
6662;DHT22;3367;48.714;8.994;2023-09-19T12:29:18;21.10;1.00
6662;DHT22;3367;48.714;8.994;2023-09-19T12:31:53;21.10;1.00
6662;DHT22;3367;48.714;8.994;2023-09-19T12:34:24;21.00;1.00
6662;DHT22;3367;48.714;8.994;2023-09-19T12:37:08;21.00;1.00
6662;DHT22;3367;48.714;8.994;2023-09-19T12:39:42;21.10;1.00
6662;DHT22;3367;48.714;8.994;2023-09-19T12:42:12;21.20;1.00
6662;DHT22;3367;48.714;8.994;2023-09-19T12:44:41;21.20;1.00
6662;DHT22;3367;48.714;8.994;2023-09-19T12:47:11;21.10;1.00
6662;DHT22;3367;48.714;8.994;2023-09-19T12:50:09;21.20;1.00
6662;DHT22;3367;48.714;8.994;2023-09-19T12:52:45;21.30;1.00
6662;DHT22;3367;48.714;8.994;2023-09-19T12:55:26;21.40;1.00
6662;DHT22;3367;48.714;8.994;2023-09-19T12:57:59;21.60;1.00
6662;DHT22;3367;48.714;8.994;2023-09-19T13:00:37;21.70;1.00
6662;DHT22;3367;48.714;8.994;2023-09-19T13:03:18;21.80;1.00
6662;DHT22;3367;48.714;8.994;2023-09-19T13:05:51;21.90;1.00
6662;DHT22;3367;48.714;8.994;2023-09-19T13:08:21;21.80;1.00
6662;DHT22;3367;48.714;8.994;2023-09-19T13:11:05;21.70;1.00
6662;DHT22;3367;48.714;8.994;2023-09-19T13:13:37;21.50;1.00
6662;DHT22;3367;48.714;8.994;2023-09-19T13:16:04;21.50;1.00
6662;DHT22;3367;48.714;8.994;2023-09-19T13:18:47;21.50;1.00
6662;DHT22;3367;48.714;8.994;2023-09-19T13:21:17;21.60;1.00
6662;DHT22;3367;48.714;8.994;2023-09-19T13:23:52;21.60;1.00
6662;DHT22;3367;48.714;8.994;2023-09-19T13:26:20;21.70;1.00
6662;DHT22;3367;48.714;8.994;2023-09-19T13:28:49;21.70;1.00
6662;DHT22;3367;48.714;8.994;2023-09-19T13:31:16;21.90;1.00
6662;DHT22;3367;48.714;8.994;2023-09-19T13:33:44;21.90;1.00
6662;DHT22;3367;48.714;8.994;2023-09-19T13:36:11;21.80;1.00
6662;DHT22;3367;48.714;8.994;2023-09-19T13:38:38;21.60;1.00
6662;DHT22;3367;48.714;8.994;2023-09-19T13:41:05;21.50;1.00
6662;DHT22;3367;48.714;8.994;2023-09-19T13:43:32;21.40;1.00
6662;DHT22;3367;48.714;8.994;2023-09-19T13:46:00;21.50;1.00
6662;DHT22;3367;48.714;8.994;2023-09-19T13:48:27;21.30;1.00
6662;DHT22;3367;48.714;8.994;2023-09-19T13:50:55;21.40;1.00
6662;DHT22;3367;48.714;8.994;2023-09-19T13:53:22;21.50;1.00
6662;DHT22;3367;48.714;8.994;2023-09-19T13:55:51;21.70;1.00
6662;DHT22;3367;48.714;8.994;2023-09-19T13:58:18;22.00;1.00
6662;DHT22;3367;48.714;8.994;2023-09-19T14:00:44;22.00;1.00
6662;DHT22;3367;48.714;8.994;2023-09-19T14:03:13;22.20;1.00
6662;DHT22;3367;48.714;8.994;2023-09-19T14:05:39;22.20;1.00
6662;DHT22;3367;48.714;8.994;2023-09-19T14:08:07;22.50;1.00
6662;DHT22;3367;48.714;8.994;2023-09-19T14:10:34;22.40;1.00
6662;DHT22;3367;48.714;8.994;2023-09-19T14:13:01;22.30;1.00
6662;DHT22;3367;48.714;8.994;2023-09-19T14:15:28;22.50;1.00
6662;DHT22;3367;48.714;8.994;2023-09-19T14:18:00;22.30;1.00
6662;DHT22;3367;48.714;8.994;2023-09-19T14:20:28;22.20;1.00
6662;DHT22;3367;48.714;8.994;2023-09-19T14:22:56;22.00;1.00
6662;DHT22;3367;48.714;8.994;2023-09-19T14:25:24;21.90;1.00
6662;DHT22;3367;48.714;8.994;2023-09-19T14:27:51;21.80;1.00
6662;DHT22;3367;48.714;8.994;2023-09-19T14:30:17;21.70;1.00
6662;DHT22;3367;48.714;8.994;2023-09-19T14:32:44;21.70;1.00
6662;DHT22;3367;48.714;8.994;2023-09-19T14:35:11;21.90;1.00
6662;DHT22;3367;48.714;8.994;2023-09-19T14:37:41;22.10;1.00
6662;DHT22;3367;48.714;8.994;2023-09-19T14:40:09;22.20;1.00
6662;DHT22;3367;48.714;8.994;2023-09-19T14:42:39;22.20;1.00
6662;DHT22;3367;48.714;8.994;2023-09-19T14:45:06;22.10;1.00
6662;DHT22;3367;48.714;8.994;2023-09-19T14:47:33;21.90;1.00
6662;DHT22;3367;48.714;8.994;2023-09-19T14:50:01;21.70;1.00
6662;DHT22;3367;48.714;8.994;2023-09-19T14:52:27;21.70;1.00
6662;DHT22;3367;48.714;8.994;2023-09-19T14:54:56;21.70;1.00
6662;DHT22;3367;48.714;8.994;2023-09-19T14:57:22;21.70;1.00
6662;DHT22;3367;48.714;8.994;2023-09-19T14:59:52;21.90;1.00
6662;DHT22;3367;48.714;8.994;2023-09-19T15:02:19;21.80;1.00
6662;DHT22;3367;48.714;8.994;2023-09-19T15:04:46;21.90;1.00
6662;DHT22;3367;48.714;8.994;2023-09-19T15:07:13;21.90;1.00
6662;DHT22;3367;48.714;8.994;2023-09-19T15:09:41;21.80;1.00
6662;DHT22;3367;48.714;8.994;2023-09-19T15:12:10;21.80;1.00
6662;DHT22;3367;48.714;8.994;2023-09-19T15:14:40;21.80;1.00
6662;DHT22;3367;48.714;8.994;2023-09-19T15:17:07;21.80;1.00
6662;DHT22;3367;48.714;8.994;2023-09-19T15:19:34;21.70;1.00
6662;DHT22;3367;48.714;8.994;2023-09-19T15:22:01;21.70;1.00
6662;DHT22;3367;48.714;8.994;2023-09-19T15:24:27;21.50;1.00
6662;DHT22;3367;48.714;8.994;2023-09-19T15:26:55;21.50;1.00
6662;DHT22;3367;48.714;8.994;2023-09-19T15:29:23;21.50;1.00
6662;DHT22;3367;48.714;8.994;2023-09-19T15:31:50;21.50;1.00
6662;DHT22;3367;48.714;8.994;2023-09-19T15:34:17;21.60;1.00
6662;DHT22;3367;48.714;8.994;2023-09-19T15:36:44;21.60;1.00
6662;DHT22;3367;48.714;8.994;2023-09-19T15:39:11;21.60;1.00
6662;DHT22;3367;48.714;8.994;2023-09-19T15:41:42;21.60;1.00
6662;DHT22;3367;48.714;8.994;2023-09-19T15:44:13;21.50;1.00
6662;DHT22;3367;48.714;8.994;2023-09-19T15:46:42;21.50;1.00
6662;DHT22;3367;48.714;8.994;2023-09-19T15:49:09;21.40;1.00
6662;DHT22;3367;48.714;8.994;2023-09-19T15:51:37;21.40;1.00
6662;DHT22;3367;48.714;8.994;2023-09-19T15:54:10;21.40;1.00
6662;DHT22;3367;48.714;8.994;2023-09-19T15:56:39;21.40;1.00
6662;DHT22;3367;48.714;8.994;2023-09-19T15:59:07;21.40;1.00
6662;DHT22;3367;48.714;8.994;2023-09-19T16:01:34;21.30;1.00
6662;DHT22;3367;48.714;8.994;2023-09-19T16:04:02;21.30;1.00
6662;DHT22;3367;48.714;8.994;2023-09-19T16:06:35;21.40;1.00
6662;DHT22;3367;48.714;8.994;2023-09-19T16:09:06;21.30;1.00
6662;DHT22;3367;48.714;8.994;2023-09-19T16:11:36;21.20;1.00
6662;DHT22;3367;48.714;8.994;2023-09-19T16:14:09;21.20;1.00
6662;DHT22;3367;48.714;8.994;2023-09-19T16:16:36;21.20;1.00
6662;DHT22;3367;48.714;8.994;2023-09-19T16:19:08;21.20;1.00
6662;DHT22;3367;48.714;8.994;2023-09-19T16:21:38;21.20;1.00
6662;DHT22;3367;48.714;8.994;2023-09-19T16:24:08;21.00;1.00
6662;DHT22;3367;48.714;8.994;2023-09-19T16:26:36;20.90;1.00
6662;DHT22;3367;48.714;8.994;2023-09-19T16:29:09;20.90;1.00
6662;DHT22;3367;48.714;8.994;2023-09-19T16:31:36;20.80;1.00
6662;DHT22;3367;48.714;8.994;2023-09-19T16:34:08;20.80;1.00
6662;DHT22;3367;48.714;8.994;2023-09-19T16:36:38;20.70;1.00
6662;DHT22;3367;48.714;8.994;2023-09-19T16:39:04;20.70;1.00
6662;DHT22;3367;48.714;8.994;2023-09-19T16:41:36;20.60;1.00
6662;DHT22;3367;48.714;8.994;2023-09-19T16:44:06;20.50;1.00
6662;DHT22;3367;48.714;8.994;2023-09-19T16:46:38;20.40;1.00